White Pigeon, Iowa
Current Conditions -  °F | °C
As of 6:15 PM on Friday 24 Oct 2014 (Local Time) from KOOA Reporting Station
Overcast Overcast  
Wind Chill: 64°   Ceiling: 1500
Heat Index: 64°   Visibility: 7mi
Dew Point: 59°   Wind: 7mph
Humidity: 86%   Direction: 260°W
Pressure: 29.94"   Gusts: NA
Location:  41.5522°N, 92.1189°W
Report Text: KOOA 242315Z AUTO 26006KT 7SM OVC015 18/15 A2994 RMK AO2 T01760152
Loading
Personal Weather Stations






























Interactive Weather Map
Tropical Storm Tracking
New forecast layout! Learn more

10-Day Weather Forecast

Advertisements
Track Severe Weather on mobile